Last 48 Hours

Bell Hill-West

Hourly Data | America/Los_Angeles
as of 5/6/26 8:06 AM PDT
Date & Time Temp (°F) WindChill (°F) RH (%) Dew Pt (°F) Wet Bulb (°F) Wind Dir (°) Wind Spd (mph) Wind Gust (mph) Wind Gst Dir (°) Solar Rad (W/m2) Latest Rain (In) Daily Rain (In) Daily Min Temp (°F) Daily Max Temp (°F) Daily ETo (in)
5/6/26 - 0800 56.3 - 96 55.1 56.9 SSW | 205 0.2 3.1 S | 175 62 0.00 0.00 54.4 56.9 0.001
5/6/26 - 0700 55.6 - 97 54.9 56.4 SSW | 192 0.2 2.1 SSW | 211 9 0.00 0.00 54.4 55.8 0.000
5/6/26 - 0600 55.6 - 96 54.5 56.2 N | 0 0.0 0.0 SSW | 207 0 0.00 0.00 54.4 55.8 0.000
5/6/26 - 0500 55.2 - 96 54.1 55.8 S | 183 0.6 3.4 S | 176 0 0.00 0.00 54.4 55.4 0.000
5/6/26 - 0400 54.9 - 96 53.9 55.5 SSW | 202 0.1 2.1 SW | 236 0 0.00 0.00 54.4 55.2 0.000
5/6/26 - 0300 54.8 - 95 53.5 55.2 W | 272 0.0 1.7 WNW | 292 0 0.00 0.00 54.4 55.1 0.000
5/6/26 - 0200 54.7 - 95 53.3 55.0 SW | 229 0.6 4.4 SW | 235 0 0.00 0.00 54.4 55.0 0.000
5/6/26 - 0100 54.9 - 94 53.1 55.0 W | 269 0.9 4.1 WNW | 296 0 0.00 0.00 46.9 70.3 0.160
5/6/26 - 0000 55.1 - 93 53.2 55.1 WSW | 245 1.6 4.4 WSW | 246 0 0.00 0.00 46.9 70.3 0.160
5/5/26 - 2300 55.4 - 92 53.0 55.1 SW | 220 1.9 6.4 WSW | 256 0 0.00 0.00 46.9 70.3 0.160
5/5/26 - 2200 55.8 - 90 52.8 55.1 SW | 218 3.9 9.8 SSW | 195 0 0.00 0.00 46.9 70.3 0.160
5/5/26 - 2100 57.9 - 84 53.3 56.2 SSW | 209 6.1 11.5 SSW | 202 1 0.00 0.00 46.9 70.3 0.160
5/5/26 - 2000 61.2 - 80 55.0 58.6 SSW | 199 6.9 12.8 S | 182 96 0.00 0.00 46.9 70.3 0.160
5/5/26 - 1900 63.8 - 76 56.1 60.2 SSW | 192 8.7 15.2 SSW | 198 287 0.00 0.00 46.9 70.3 0.158
5/5/26 - 1800 66.6 - 70 56.4 61.3 SSW | 193 9.0 14.8 S | 182 502 0.00 0.00 46.9 70.3 0.151
5/5/26 - 1700 68.4 - 66 56.6 61.8 SW | 215 7.4 13.5 SSW | 204 578 0.00 0.00 46.9 70.3 0.140
5/5/26 - 1600 68.4 - 65 56.2 61.6 SW | 234 5.7 12.5 WNW | 286 681 0.00 0.00 46.9 69.4 0.125
5/5/26 - 1500 68.0 - 66 56.2 61.5 SW | 232 4.5 11.1 W | 276 936 0.00 0.00 46.9 69.1 0.108
5/5/26 - 1400 65.5 - 69 55.2 60.1 WSW | 249 4.3 12.8 WSW | 250 654 0.00 0.00 46.9 67.6 0.086
5/5/26 - 1300 64.1 - 71 54.4 59.1 WNW | 293 2.9 7.8 NNE | 26 690 0.00 0.00 46.9 65.2 0.070
5/5/26 - 1200 61.8 - 74 53.4 57.7 N | 356 2.9 10.1 WSW | 241 876 0.00 0.00 46.9 63.3 0.053
5/5/26 - 1100 59.0 - 79 52.5 56.2 SW | 220 2.3 6.8 N | 9 772 0.00 0.00 46.9 60.6 0.033
5/5/26 - 1000 56.0 - 85 51.5 54.4 ENE | 75 2.2 5.4 ENE | 60 506 0.00 0.00 46.9 56.8 0.017
5/5/26 - 0900 52.8 - 92 50.6 52.4 E | 85 0.8 4.8 NE | 56 305 0.00 0.00 46.9 55.0 0.007
5/5/26 - 0800 50.2 - 99 50.1 51.0 WSW | 248 1.9 5.8 WSW | 251 74 0.00 0.00 46.9 51.0 0.001
5/5/26 - 0700 48.6 - 100 48.6 49.4 SW | 227 1.3 6.1 WSW | 258 13 0.00 0.00 46.9 50.3 0.000
5/5/26 - 0600 47.6 - 100 47.6 48.3 S | 180 0.3 3.1 SSE | 157 0 0.00 0.00 46.9 50.3 0.000
5/5/26 - 0500 48.6 - 100 48.6 49.3 SSW | 197 0.2 2.7 SSW | 192 0 0.00 0.00 48.1 50.3 0.000
5/5/26 - 0400 48.7 - 100 48.7 49.5 SSW | 205 1.6 4.8 SSW | 192 0 0.00 0.00 48.4 50.3 0.000
5/5/26 - 0300 49.2 48.7 100 49.2 50.0 SW | 223 3.1 7.8 SW | 224 0 0.00 0.00 48.5 50.3 0.000
5/5/26 - 0200 49.9 49.5 100 49.9 50.8 SW | 226 3.1 6.4 SSW | 208 0 0.00 0.00 49.7 50.3 0.000
5/5/26 - 0100 50.0 - 100 50.0 50.9 SSW | 210 3.2 6.1 WSW | 238 0 0.00 0.12 49.8 58.3 0.051
5/5/26 - 0000 50.5 - 100 50.5 51.4 SW | 214 3.5 9.1 WSW | 238 0 0.00 0.12 49.9 58.3 0.051
5/4/26 - 2300 50.9 - 100 51.0 51.9 SW | 219 2.9 9.1 WSW | 237 0 0.00 0.12 50.6 58.3 0.051
5/4/26 - 2200 52.4 - 96 51.2 52.7 WSW | 247 2.5 6.8 SSW | 205 0 0.05 0.12 50.7 58.3 0.051
5/4/26 - 2100 52.8 - 97 52.0 53.4 SW | 233 3.1 8.8 WSW | 246 0 0.00 0.07 50.7 58.3 0.051
5/4/26 - 2000 53.7 - 95 52.2 53.9 SW | 226 4.4 11.8 WSW | 251 20 0.00 0.07 50.7 58.3 0.051
5/4/26 - 1900 54.8 - 92 52.6 54.6 SSW | 197 4.5 8.8 SSW | 196 23 0.00 0.07 50.7 58.3 0.051
5/4/26 - 1800 55.6 - 91 53.2 55.3 SSW | 201 4.6 9.8 SW | 222 78 0.00 0.07 50.7 58.3 0.050
5/4/26 - 1700 56.0 - 90 53.2 55.4 SW | 216 4.8 9.5 SSW | 205 112 0.00 0.07 50.7 58.3 0.048
5/4/26 - 1600 56.8 - 90 54.0 56.3 SSW | 198 4.7 8.8 SSW | 205 260 0.00 0.07 50.7 58.3 0.045
5/4/26 - 1500 54.4 - 98 54.0 55.3 SW | 216 2.6 6.1 S | 187 222 0.00 0.07 50.7 58.3 0.039
5/4/26 - 1400 53.3 - 98 52.6 54.0 WSW | 238 3.0 7.8 W | 267 98 0.07 0.07 50.7 58.3 0.034
5/4/26 - 1300 56.4 - 80 50.5 53.9 WSW | 240 5.2 9.1 WSW | 243 181 0.00 0.00 50.7 58.3 0.032
5/4/26 - 1200 57.7 - 78 50.9 54.7 WSW | 258 4.5 9.8 NW | 312 348 0.00 0.00 50.7 58.3 0.027
5/4/26 - 1100 56.9 - 78 50.3 54.0 W | 268 2.0 5.8 SSE | 159 234 0.00 0.00 50.7 57.5 0.019
5/4/26 - 1000 56.1 - 79 49.6 53.3 NW | 322 1.5 5.4 NNE | 19 334 0.00 0.00 50.7 57.4 0.013
5/4/26 - 0900 53.4 - 86 49.3 51.9 W | 263 1.5 4.8 WNW | 287 241 0.00 0.00 50.7 55.4 0.006
5/4/26 - 0800 51.2 - 91 48.7 50.6 WSW | 239 3.8 7.8 WSW | 246 63 0.00 0.00 50.7 52.8 0.002
Max 68.4 49.5 100 56.6 61.8 - 9.0 15.2 - 936 0.07 0.12 54.4 70.3 0.160
Avg 55.9 49.1 89 52.4 54.8 - 3.0 7.4 - 189 0.00 - - - -
Min 47.6 48.7 65 47.6 48.3 - 0.0 0.0 - 0 0.00 0.00 46.9 50.3 0.000
Total - - - - - - - - - - 0.12 - - - -